createdAt,value
2022-10-16T00:01:47.162Z,4.00
2022-10-16T00:04:16.385Z,4.37
2022-10-16T00:06:44.949Z,3.90
2022-10-16T00:09:13.651Z,4.20
2022-10-16T00:11:42.869Z,4.30
2022-10-16T00:14:16.631Z,4.07
2022-10-16T00:16:45.350Z,4.40
2022-10-16T00:19:14.492Z,3.67
2022-10-16T00:21:43.420Z,4.20
2022-10-16T00:24:30.706Z,4.00
2022-10-16T00:26:59.526Z,3.97
2022-10-16T00:29:29.601Z,3.77
2022-10-16T00:31:59.543Z,3.63
2022-10-16T00:34:29.294Z,3.23
2022-10-16T00:36:58.065Z,3.50
2022-10-16T00:39:27.148Z,3.60
2022-10-16T00:41:56.011Z,3.47
2022-10-16T00:44:50.917Z,2.90
2022-10-16T00:47:26.082Z,3.10
2022-10-16T00:50:00.108Z,3.10
2022-10-16T00:52:29.166Z,3.07
2022-10-16T00:54:59.298Z,3.10
2022-10-16T00:57:32.070Z,2.93
2022-10-16T01:00:02.649Z,3.00
2022-10-16T01:02:32.034Z,3.00
2022-10-16T01:05:01.023Z,3.10
2022-10-16T01:07:40.627Z,2.30
2022-10-16T01:10:16.749Z,2.83
2022-10-16T01:12:50.176Z,3.13
2022-10-16T01:15:28.844Z,2.80
2022-10-16T01:18:03.169Z,2.70
2022-10-16T01:20:35.329Z,2.70
2022-10-16T01:23:18.018Z,2.93
2022-10-16T01:26:12.988Z,2.67
2022-10-16T01:28:47.577Z,3.10
2022-10-16T01:31:19.643Z,3.80
2022-10-16T01:36:29.857Z,3.23
2022-10-16T01:39:07.070Z,2.87
2022-10-16T01:41:40.533Z,2.97
2022-10-16T01:44:15.684Z,3.13
2022-10-16T01:46:48.608Z,2.90
2022-10-16T01:49:20.347Z,2.90
2022-10-16T01:51:55.727Z,2.83
2022-10-16T01:54:28.121Z,2.80
2022-10-16T01:56:58.885Z,3.20
2022-10-16T01:59:34.198Z,2.83
2022-10-16T02:02:08.878Z,2.70
2022-10-16T02:04:42.039Z,3.00
2022-10-16T02:07:11.367Z,2.40
2022-10-16T02:09:40.776Z,2.30
2022-10-16T02:12:16.478Z,2.60
2022-10-16T02:14:46.384Z,2.90
2022-10-16T02:17:18.649Z,2.23
2022-10-16T02:19:50.029Z,2.37
2022-10-16T02:22:24.993Z,2.40
2022-10-16T02:24:59.029Z,2.50
2022-10-16T02:27:38.914Z,2.70
2022-10-16T02:30:15.695Z,2.20
2022-10-16T02:32:47.700Z,2.30
2022-10-16T02:35:19.272Z,2.60
2022-10-16T02:37:49.101Z,2.20
2022-10-16T02:40:21.508Z,2.10
2022-10-16T02:42:54.567Z,2.20
2022-10-16T02:45:26.144Z,2.03
2022-10-16T02:47:54.573Z,1.97
2022-10-16T02:50:23.401Z,2.50
2022-10-16T02:52:51.862Z,2.13
2022-10-16T02:55:20.448Z,2.47
2022-10-16T02:57:49.603Z,2.60
2022-10-16T03:00:19.847Z,2.10
2022-10-16T03:02:49.849Z,2.10
2022-10-16T03:05:19.225Z,2.20
2022-10-16T03:07:47.842Z,2.07
2022-10-16T03:10:16.448Z,2.30
2022-10-16T03:12:44.978Z,1.97
2022-10-16T03:15:13.348Z,2.40
2022-10-16T03:17:41.769Z,1.80
2022-10-16T03:20:12.127Z,2.93
2022-10-16T03:22:40.852Z,2.00
2022-10-16T03:25:10.155Z,2.23
2022-10-16T03:27:39.046Z,2.27
2022-10-16T03:30:09.176Z,2.37
2022-10-16T03:32:37.847Z,1.67
2022-10-16T03:35:07.076Z,2.20
2022-10-16T03:37:38.411Z,2.03
2022-10-16T03:40:08.041Z,1.90
2022-10-16T03:42:37.226Z,2.03
2022-10-16T03:45:06.588Z,2.50
2022-10-16T03:47:35.335Z,1.80
2022-10-16T03:50:03.738Z,2.10
2022-10-16T03:52:33.240Z,2.20
2022-10-16T03:55:03.085Z,1.90
2022-10-16T03:57:31.457Z,2.00
2022-10-16T03:59:59.809Z,2.10
2022-10-16T04:02:28.182Z,1.87
2022-10-16T04:04:56.757Z,1.47
2022-10-16T04:07:25.623Z,2.07
2022-10-16T04:09:58.884Z,1.73
2022-10-16T04:12:29.303Z,2.10
2022-10-16T04:14:57.747Z,2.10
2022-10-16T04:17:26.355Z,1.87
2022-10-16T04:19:55.117Z,1.90
2022-10-16T04:22:23.798Z,1.80
2022-10-16T04:24:52.365Z,2.10
2022-10-16T04:27:22.474Z,2.20
2022-10-16T04:29:52.465Z,2.20
2022-10-16T04:32:21.211Z,2.30
2022-10-16T04:34:49.593Z,2.37
2022-10-16T04:37:18.344Z,1.63
2022-10-16T04:39:47.446Z,2.07
2022-10-16T04:42:16.195Z,2.50
2022-10-16T04:44:44.785Z,1.90
2022-10-16T04:47:15.480Z,2.27
2022-10-16T04:49:44.104Z,2.27
2022-10-16T04:52:12.646Z,2.40
2022-10-16T04:54:42.254Z,2.53
2022-10-16T04:57:10.814Z,2.60
2022-10-16T04:59:39.295Z,2.63
2022-10-16T05:02:07.786Z,1.83
2022-10-16T05:04:38.292Z,2.20
2022-10-16T05:07:07.027Z,2.10
2022-10-16T05:09:35.893Z,2.17
2022-10-16T05:12:05.014Z,2.63
2022-10-16T05:14:33.682Z,2.13
2022-10-16T05:17:02.963Z,2.00
2022-10-16T05:19:31.546Z,2.53
2022-10-16T05:22:01.538Z,2.37
2022-10-16T05:24:30.342Z,2.50
2022-10-16T05:26:59.831Z,2.40
2022-10-16T05:29:28.297Z,2.40
2022-10-16T05:31:56.773Z,2.33
2022-10-16T05:34:25.605Z,2.23
2022-10-16T05:36:54.049Z,2.17
2022-10-16T05:39:23.995Z,2.43
2022-10-16T05:41:53.536Z,2.57
2022-10-16T05:44:22.220Z,2.10
2022-10-16T05:46:50.780Z,2.43
2022-10-16T05:49:19.397Z,2.03
2022-10-16T05:51:47.798Z,2.40
2022-10-16T05:54:16.899Z,2.47
2022-10-16T05:56:47.030Z,2.57
2022-10-16T05:59:15.638Z,2.87
2022-10-16T06:01:44.360Z,2.23
2022-10-16T06:04:13.205Z,2.83
2022-10-16T06:06:41.773Z,3.03
2022-10-16T06:09:11.907Z,2.70
2022-10-16T06:11:40.349Z,3.60
2022-10-16T06:14:11.166Z,3.17
2022-10-16T06:16:40.226Z,3.03
2022-10-16T06:19:09.410Z,3.70
2022-10-16T06:21:38.382Z,3.20
2022-10-16T06:24:07.221Z,3.53
2022-10-16T06:26:35.766Z,3.37
2022-10-16T06:29:04.751Z,3.50
2022-10-16T06:31:34.815Z,3.20
2022-10-16T06:34:05.818Z,3.20
2022-10-16T06:36:34.414Z,3.40
2022-10-16T06:39:03.099Z,3.23
2022-10-16T06:41:32.107Z,3.93
2022-10-16T06:44:09.736Z,3.50
2022-10-16T06:46:41.553Z,3.90
2022-10-16T06:49:10.262Z,3.60
2022-10-16T06:51:43.333Z,3.70
2022-10-16T06:54:12.543Z,3.43
2022-10-16T06:56:41.124Z,3.70
2022-10-16T06:59:09.510Z,4.63
2022-10-16T07:01:38.242Z,3.80
2022-10-16T07:04:08.201Z,4.23
2022-10-16T07:06:36.993Z,4.13
2022-10-16T07:09:08.435Z,4.70
2022-10-16T07:11:38.430Z,4.50
2022-10-16T07:14:07.604Z,4.50
2022-10-16T07:16:36.323Z,4.30
2022-10-16T07:19:05.381Z,4.93
2022-10-16T07:21:38.388Z,4.40
2022-10-16T07:24:08.372Z,5.10
2022-10-16T07:26:40.408Z,4.60
2022-10-16T07:29:16.022Z,4.33
2022-10-16T07:31:46.256Z,4.60
2022-10-16T07:34:17.126Z,4.77
2022-10-16T07:36:49.486Z,4.27
2022-10-16T07:39:18.385Z,4.37
2022-10-16T07:41:47.079Z,3.30
2022-10-16T07:44:16.049Z,4.20
2022-10-16T07:46:44.606Z,4.27
2022-10-16T07:49:12.992Z,3.90
2022-10-16T07:51:41.543Z,3.40
2022-10-16T07:54:12.571Z,4.73
2022-10-16T07:56:43.691Z,3.30
2022-10-16T07:59:13.310Z,3.67
2022-10-16T08:01:45.031Z,3.60
2022-10-16T08:04:13.963Z,3.27
2022-10-16T08:06:43.244Z,3.37
2022-10-16T08:09:13.437Z,2.80
2022-10-16T08:11:42.049Z,3.27
2022-10-16T08:14:11.431Z,3.17
2022-10-16T08:16:40.354Z,3.00
2022-10-16T08:19:09.013Z,2.90
2022-10-16T08:21:37.964Z,2.90
2022-10-16T08:24:07.032Z,3.07
2022-10-16T08:26:37.014Z,3.00
2022-10-16T08:29:05.745Z,2.70
2022-10-16T08:31:35.431Z,2.80
2022-10-16T08:34:04.491Z,2.87
2022-10-16T08:36:32.913Z,3.00
2022-10-16T08:39:01.722Z,2.50
2022-10-16T08:42:07.148Z,2.23
2022-10-16T08:45:04.270Z,2.20
2022-10-16T08:47:44.387Z,2.10
2022-10-16T08:50:15.424Z,2.63
2022-10-16T08:52:46.464Z,1.97
2022-10-16T08:55:31.579Z,2.03
2022-10-16T08:58:02.360Z,2.20
2022-10-16T09:00:32.242Z,2.30
2022-10-16T09:03:09.592Z,1.97
2022-10-16T09:06:03.235Z,2.03
2022-10-16T09:08:45.074Z,1.47
2022-10-16T09:11:20.560Z,2.00
2022-10-16T09:13:57.946Z,1.70
2022-10-16T09:16:33.361Z,2.03
2022-10-16T09:19:11.397Z,2.07
2022-10-16T09:21:43.763Z,1.70
2022-10-16T09:24:14.947Z,1.37
2022-10-16T09:26:43.903Z,2.13
2022-10-16T09:29:15.057Z,2.03
2022-10-16T09:31:46.896Z,1.17
2022-10-16T09:34:29.052Z,1.63
2022-10-16T09:36:59.910Z,1.60
2022-10-16T09:39:28.635Z,1.37
2022-10-16T09:41:58.842Z,1.67
2022-10-16T09:44:32.164Z,1.90
2022-10-16T09:47:05.342Z,1.73
2022-10-16T09:49:35.650Z,1.67
2022-10-16T09:52:08.778Z,1.70
2022-10-16T09:54:37.610Z,1.87
2022-10-16T09:57:14.872Z,2.40
2022-10-16T09:59:50.639Z,1.50
2022-10-16T10:02:21.411Z,1.40
2022-10-16T10:04:55.327Z,1.40
2022-10-16T10:07:29.153Z,1.20
2022-10-16T10:09:59.741Z,1.57
2022-10-16T10:12:30.646Z,1.40
2022-10-16T10:15:07.985Z,2.37
2022-10-16T10:17:36.596Z,2.50
2022-10-16T10:20:24.522Z,2.67
2022-10-16T10:22:53.220Z,1.53
2022-10-16T10:25:31.737Z,2.07
2022-10-16T10:28:20.799Z,1.17
2022-10-16T10:30:59.016Z,1.53
2022-10-16T10:33:40.337Z,1.57
2022-10-16T10:36:20.189Z,1.53
2022-10-16T10:38:53.917Z,1.13
2022-10-16T10:42:07.740Z,1.43
2022-10-16T10:45:03.003Z,1.60
2022-10-16T10:47:42.730Z,1.40
2022-10-16T10:50:22.741Z,1.43
2022-10-16T10:53:00.765Z,1.67
2022-10-16T10:55:35.982Z,1.40
2022-10-16T10:58:33.582Z,1.47
2022-10-16T11:01:09.343Z,2.07
2022-10-16T11:03:58.344Z,1.53
2022-10-16T11:06:31.857Z,2.13
2022-10-16T11:09:04.982Z,1.73
2022-10-16T11:11:40.469Z,0.93
2022-10-16T11:14:17.862Z,1.50
2022-10-16T11:16:54.228Z,1.33
2022-10-16T11:19:37.587Z,1.53
2022-10-16T11:22:12.071Z,2.10
2022-10-16T11:24:48.247Z,2.00
2022-10-16T11:27:20.931Z,1.70
2022-10-16T11:29:56.005Z,1.47
2022-10-16T11:32:32.437Z,1.63
2022-10-16T11:35:13.676Z,1.47
2022-10-16T11:37:46.157Z,1.70
2022-10-16T11:40:25.121Z,1.57
2022-10-16T11:43:01.356Z,1.33
2022-10-16T11:45:36.744Z,1.50
2022-10-16T11:48:18.145Z,1.57
2022-10-16T11:50:54.085Z,1.57
2022-10-16T11:53:32.018Z,1.70
2022-10-16T11:56:00.835Z,1.33
2022-10-16T11:58:35.474Z,1.20
2022-10-16T12:01:20.234Z,0.93
2022-10-16T12:03:59.633Z,1.40
2022-10-16T12:06:35.625Z,1.30
2022-10-16T12:09:06.175Z,0.83
2022-10-16T12:11:38.465Z,1.17
2022-10-16T12:14:20.056Z,1.30
2022-10-16T12:16:59.513Z,0.93
2022-10-16T12:19:31.388Z,1.30
2022-10-16T12:22:04.554Z,1.03
2022-10-16T12:24:39.424Z,1.40
2022-10-16T12:27:22.734Z,1.20
2022-10-16T12:29:58.531Z,1.27
2022-10-16T12:32:49.868Z,1.00
2022-10-16T12:35:22.339Z,1.27
2022-10-16T12:37:53.524Z,1.43
2022-10-16T12:40:32.051Z,1.60
2022-10-16T12:43:01.223Z,1.50
2022-10-16T12:45:33.490Z,1.10
2022-10-16T12:48:04.719Z,0.70
2022-10-16T12:50:36.796Z,1.07
2022-10-16T12:53:20.725Z,1.03
2022-10-16T12:56:01.869Z,1.03
2022-10-16T12:58:45.046Z,0.80
2022-10-16T13:01:27.640Z,0.77
2022-10-16T13:04:28.364Z,0.90
2022-10-16T13:07:06.413Z,1.07
2022-10-16T13:09:52.875Z,1.03
2022-10-16T13:13:00.402Z,1.23
2022-10-16T13:15:51.213Z,1.10
2022-10-16T13:18:25.130Z,1.27
2022-10-16T13:21:09.832Z,0.83
2022-10-16T13:26:30.729Z,1.03
2022-10-16T13:29:02.633Z,1.80
2022-10-16T13:31:34.538Z,0.90
2022-10-16T13:34:05.169Z,1.20
2022-10-16T13:36:38.610Z,1.30
2022-10-16T13:39:14.697Z,1.33
2022-10-16T13:41:44.816Z,1.20
2022-10-16T13:44:19.595Z,1.40
2022-10-16T13:46:48.712Z,1.13
2022-10-16T13:49:21.263Z,1.20
2022-10-16T13:51:57.338Z,1.13
2022-10-16T13:54:27.869Z,1.43
2022-10-16T13:57:15.493Z,1.57
2022-10-16T13:59:48.901Z,0.90
2022-10-16T14:02:28.718Z,0.77
2022-10-16T14:05:00.030Z,1.10
2022-10-16T14:07:32.259Z,1.07
2022-10-16T14:10:04.399Z,1.37
2022-10-16T14:12:35.521Z,1.43
2022-10-16T14:15:04.924Z,1.10
2022-10-16T14:17:37.314Z,1.10
2022-10-16T14:20:08.305Z,1.13
2022-10-16T14:22:39.274Z,1.10
2022-10-16T14:25:27.655Z,1.03
2022-10-16T14:28:03.575Z,1.13
2022-10-16T14:30:33.447Z,1.20
2022-10-16T14:33:04.379Z,1.07
2022-10-16T14:35:35.315Z,1.20
2022-10-16T14:38:06.859Z,1.60
2022-10-16T14:40:38.353Z,1.30
2022-10-16T14:43:08.778Z,1.20
2022-10-16T14:45:39.572Z,1.57
2022-10-16T14:48:20.054Z,0.90
2022-10-16T14:50:49.131Z,1.13
2022-10-16T14:53:18.104Z,1.53
2022-10-16T14:55:47.184Z,1.33
2022-10-16T14:58:20.060Z,1.00
2022-10-16T15:00:49.204Z,1.00
2022-10-16T15:03:18.587Z,1.27
2022-10-16T15:05:48.277Z,1.07
2022-10-16T15:08:17.700Z,1.10
2022-10-16T15:10:47.070Z,1.30
2022-10-16T15:13:17.737Z,2.20
2022-10-16T15:15:47.716Z,2.20
2022-10-16T15:18:21.418Z,1.20
2022-10-16T15:20:52.305Z,1.00
2022-10-16T15:23:23.311Z,1.10
2022-10-16T15:25:53.903Z,1.43
2022-10-16T15:28:25.750Z,1.23
2022-10-16T15:30:56.959Z,1.43
2022-10-16T15:33:33.249Z,1.20
2022-10-16T15:36:05.479Z,1.47
2022-10-16T15:38:34.476Z,1.27
2022-10-16T15:41:03.480Z,1.30
2022-10-16T15:43:33.746Z,1.87
2022-10-16T15:46:04.652Z,1.40
2022-10-16T15:48:34.220Z,1.17
2022-10-16T15:51:07.022Z,1.40
2022-10-16T15:53:36.171Z,1.60
2022-10-16T15:56:05.590Z,1.50
2022-10-16T15:58:36.522Z,0.97
2022-10-16T16:01:07.094Z,1.70
2022-10-16T16:03:37.091Z,1.30
2022-10-16T16:06:10.242Z,1.53
2022-10-16T16:08:39.522Z,1.60
2022-10-16T16:11:10.384Z,1.30
2022-10-16T16:13:41.291Z,1.80
2022-10-16T16:16:11.620Z,1.70
2022-10-16T16:18:43.039Z,2.00
2022-10-16T16:21:13.275Z,1.63
2022-10-16T16:23:42.615Z,2.00
2022-10-16T16:26:14.110Z,2.17
2022-10-16T16:28:46.698Z,2.20
2022-10-16T16:31:15.842Z,1.77
2022-10-16T16:33:44.553Z,1.53
2022-10-16T16:36:15.908Z,1.47
2022-10-16T16:38:45.053Z,1.60
2022-10-16T16:41:14.714Z,2.10
2022-10-16T16:43:44.759Z,1.83
2022-10-16T16:46:14.202Z,2.17
2022-10-16T16:48:43.748Z,2.90
2022-10-16T16:51:17.390Z,1.70
2022-10-16T16:53:47.570Z,1.80
2022-10-16T16:56:16.792Z,2.00
2022-10-16T16:58:49.465Z,2.27
2022-10-16T17:01:20.794Z,2.70
2022-10-16T17:03:52.953Z,2.37
2022-10-16T17:06:23.056Z,4.27
2022-10-16T17:08:52.922Z,2.07
2022-10-16T17:11:23.923Z,2.73
2022-10-16T17:13:56.765Z,3.07
2022-10-16T17:16:28.233Z,2.13
2022-10-16T17:18:56.980Z,2.53
2022-10-16T17:21:27.083Z,2.53
2022-10-16T17:23:56.232Z,3.13
2022-10-16T17:26:25.130Z,2.47
2022-10-16T17:28:56.355Z,2.87
2022-10-16T17:31:27.102Z,3.07
2022-10-16T17:33:56.541Z,2.73
2022-10-16T17:36:25.873Z,2.80
2022-10-16T17:38:54.805Z,3.20
2022-10-16T17:41:25.648Z,3.10
2022-10-16T17:43:56.034Z,2.70
2022-10-16T17:46:25.742Z,2.63
2022-10-16T17:48:56.442Z,3.03
2022-10-16T17:51:30.313Z,2.43
2022-10-16T17:54:02.489Z,2.43
2022-10-16T17:56:32.729Z,2.43
2022-10-16T17:59:03.826Z,2.33
2022-10-16T18:01:34.308Z,2.00
2022-10-16T18:04:05.709Z,2.50
2022-10-16T18:06:35.537Z,2.67
2022-10-16T18:09:05.874Z,2.50
2022-10-16T18:11:35.355Z,2.00
2022-10-16T18:14:06.262Z,1.70
2022-10-16T18:16:36.708Z,1.97
2022-10-16T18:19:06.208Z,2.33
2022-10-16T18:21:35.237Z,1.90
2022-10-16T18:24:03.967Z,1.80
2022-10-16T18:26:33.335Z,1.80
2022-10-16T18:29:02.851Z,1.60
2022-10-16T18:31:37.787Z,2.20
2022-10-16T18:34:09.851Z,1.73
2022-10-16T18:36:39.982Z,1.80
2022-10-16T18:39:10.797Z,2.57
2022-10-16T18:41:41.909Z,2.20
2022-10-16T18:44:11.485Z,1.87
2022-10-16T18:46:42.338Z,2.40
2022-10-16T18:49:12.178Z,2.70
2022-10-16T18:51:44.294Z,2.43
2022-10-16T18:54:14.279Z,2.37
2022-10-16T18:56:42.862Z,2.40
2022-10-16T18:59:11.940Z,2.60
2022-10-16T19:01:43.614Z,2.90
2022-10-16T19:04:15.877Z,2.80
2022-10-16T19:06:46.794Z,2.50
2022-10-16T19:09:17.766Z,3.10
2022-10-16T19:11:46.844Z,2.90
2022-10-16T19:14:17.091Z,2.57
2022-10-16T19:16:47.486Z,2.87
2022-10-16T19:19:18.466Z,3.10
2022-10-16T19:21:48.274Z,4.10
2022-10-16T19:24:17.898Z,4.33
2022-10-16T19:26:46.581Z,5.40
2022-10-16T19:29:16.508Z,6.27
2022-10-16T19:31:50.900Z,9.70
2022-10-16T19:34:22.426Z,8.77
2022-10-16T19:36:51.189Z,7.83
2022-10-16T19:41:53.477Z,6.90
2022-10-16T19:44:22.378Z,6.83
2022-10-16T19:46:52.661Z,7.17
2022-10-16T19:49:22.408Z,8.10
2022-10-16T19:51:52.319Z,8.50
2022-10-16T19:54:21.609Z,8.77
2022-10-16T19:56:50.310Z,9.57
2022-10-16T19:59:20.442Z,9.53
2022-10-16T20:01:49.216Z,9.53
2022-10-16T20:04:19.549Z,9.03
2022-10-16T20:06:48.684Z,8.17
2022-10-16T20:09:17.508Z,8.20
2022-10-16T20:11:46.507Z,7.93
2022-10-16T20:14:15.566Z,7.57
2022-10-16T20:16:44.235Z,7.57
2022-10-16T20:19:13.118Z,7.00
2022-10-16T20:21:43.203Z,6.80
2022-10-16T20:24:11.865Z,6.43
2022-10-16T20:26:40.829Z,5.83
2022-10-16T20:29:10.314Z,5.87
2022-10-16T20:31:42.026Z,4.90
2022-10-16T20:34:13.860Z,5.63
2022-10-16T20:36:52.477Z,5.43
2022-10-16T20:39:23.952Z,5.43
2022-10-16T20:41:52.536Z,5.83
2022-10-16T20:44:21.320Z,5.43
2022-10-16T20:46:50.082Z,5.33
2022-10-16T20:49:28.756Z,5.40
2022-10-16T20:52:09.418Z,5.63
2022-10-16T20:54:38.229Z,5.70
2022-10-16T20:57:07.100Z,5.33
2022-10-16T20:59:35.884Z,5.53
2022-10-16T21:02:05.901Z,5.80
2022-10-16T21:04:36.822Z,5.80
2022-10-16T21:07:05.711Z,5.63
2022-10-16T21:09:35.933Z,5.23
2022-10-16T21:12:04.590Z,4.80
2022-10-16T21:14:33.571Z,4.80
2022-10-16T21:17:02.410Z,5.17
2022-10-16T21:19:31.085Z,4.33
2022-10-16T21:21:59.566Z,3.63
2022-10-16T21:24:28.124Z,4.70
2022-10-16T21:26:58.153Z,4.27
2022-10-16T21:29:26.683Z,4.80
2022-10-16T21:31:55.340Z,4.37
2022-10-16T21:34:23.931Z,5.03
2022-10-16T21:36:52.842Z,3.60
2022-10-16T21:39:22.269Z,3.83
2022-10-16T21:41:52.390Z,4.87
2022-10-16T21:44:22.585Z,6.50
2022-10-16T21:46:52.054Z,7.77
2022-10-16T21:49:21.064Z,8.47
2022-10-16T21:51:51.435Z,8.47
2022-10-16T21:54:22.322Z,7.67
2022-10-16T21:56:51.027Z,7.80
2022-10-16T21:59:22.654Z,7.73
2022-10-16T22:01:54.217Z,7.67
2022-10-16T22:04:23.426Z,7.43
2022-10-16T22:06:51.932Z,7.57
2022-10-16T22:09:20.794Z,7.37
2022-10-16T22:11:51.131Z,7.90
2022-10-16T22:14:22.110Z,9.23
2022-10-16T22:16:52.179Z,7.80
2022-10-16T22:19:22.879Z,9.00
2022-10-16T22:21:54.652Z,10.27
2022-10-16T22:24:23.738Z,9.80
2022-10-16T22:26:52.278Z,9.00
2022-10-16T22:29:20.760Z,10.93
2022-10-16T22:31:54.077Z,10.23
2022-10-16T22:34:22.809Z,10.67
2022-10-16T22:36:51.679Z,11.53
2022-10-16T22:39:20.395Z,10.40
2022-10-16T22:41:48.960Z,9.80
2022-10-16T22:44:17.581Z,10.30
2022-10-16T22:46:46.031Z,10.00
2022-10-16T22:49:17.780Z,10.50
2022-10-16T22:51:46.732Z,10.80
2022-10-16T22:54:15.272Z,9.47
2022-10-16T22:56:43.987Z,10.00
2022-10-16T22:59:12.941Z,9.97
2022-10-16T23:01:43.060Z,9.70
2022-10-16T23:04:11.840Z,9.93
2022-10-16T23:06:41.803Z,9.97
2022-10-16T23:09:11.904Z,10.17
2022-10-16T23:11:40.795Z,9.90
2022-10-16T23:14:09.392Z,9.97
2022-10-16T23:16:38.092Z,9.73
2022-10-16T23:19:06.807Z,9.70
2022-10-16T23:21:35.633Z,9.50
2022-10-16T23:24:06.155Z,10.23
2022-10-16T23:26:35.814Z,9.50
2022-10-16T23:29:05.124Z,9.00
2022-10-16T23:31:33.828Z,10.23
2022-10-16T23:34:02.872Z,9.20
2022-10-16T23:36:31.784Z,9.37
2022-10-16T23:39:00.254Z,8.83
2022-10-16T23:41:30.415Z,9.53
2022-10-16T23:43:59.069Z,8.97
2022-10-16T23:46:27.706Z,9.17
2022-10-16T23:48:56.414Z,9.13
2022-10-16T23:51:25.123Z,8.77
2022-10-16T23:53:53.910Z,9.83
2022-10-16T23:56:23.041Z,10.27
2022-10-16T23:58:52.971Z,10.00
